createdAt,value
2023-05-07T00:01:38.468Z,14.70
2023-05-07T00:04:05.798Z,13.35
2023-05-07T00:06:34.268Z,16.40
2023-05-07T00:09:01.922Z,16.35
2023-05-07T00:11:29.465Z,12.18
2023-05-07T00:13:56.495Z,13.02
2023-05-07T00:16:23.802Z,11.20
2023-05-07T00:18:50.722Z,13.07
2023-05-07T00:21:17.737Z,12.48
2023-05-07T00:23:44.682Z,17.73
2023-05-07T00:26:11.675Z,14.23
2023-05-07T00:28:38.632Z,14.80
2023-05-07T00:31:05.576Z,11.13
2023-05-07T00:33:32.482Z,11.27
2023-05-07T00:35:59.339Z,13.27
2023-05-07T00:38:26.458Z,13.80
2023-05-07T00:40:53.386Z,14.07
2023-05-07T00:43:20.490Z,13.65
2023-05-07T00:45:47.447Z,14.95
2023-05-07T00:48:15.292Z,11.27
2023-05-07T00:50:42.657Z,13.43
2023-05-07T00:53:09.781Z,12.15
2023-05-07T00:55:37.955Z,11.68
2023-05-07T00:58:04.965Z,14.57
2023-05-07T01:00:32.173Z,14.10
2023-05-07T01:02:59.546Z,10.73
2023-05-07T01:05:28.776Z,13.77
2023-05-07T01:07:57.490Z,13.90
2023-05-07T01:10:25.384Z,14.27
2023-05-07T01:12:53.372Z,16.77
2023-05-07T01:15:20.457Z,13.73
2023-05-07T01:17:47.903Z,12.80
2023-05-07T01:20:15.347Z,20.70
2023-05-07T01:22:44.108Z,14.23
2023-05-07T01:25:11.042Z,13.20
2023-05-07T01:27:38.284Z,12.75
2023-05-07T01:30:06.288Z,12.57
2023-05-07T01:32:44.685Z,18.02
2023-05-07T01:35:14.969Z,15.23
2023-05-07T01:37:42.657Z,15.88
2023-05-07T01:40:10.711Z,13.10
2023-05-07T01:42:37.920Z,14.70
2023-05-07T01:45:05.577Z,14.90
2023-05-07T01:47:32.852Z,16.65
2023-05-07T01:50:00.471Z,11.68
2023-05-07T01:52:29.178Z,14.45
2023-05-07T01:54:56.146Z,17.58
2023-05-07T01:57:23.072Z,13.45
2023-05-07T01:59:49.988Z,20.40
2023-05-07T02:02:16.957Z,19.90
2023-05-07T02:04:43.854Z,14.95
2023-05-07T02:07:11.247Z,13.80
2023-05-07T02:09:38.188Z,14.52
2023-05-07T02:12:05.496Z,15.38
2023-05-07T02:14:32.382Z,18.50
2023-05-07T02:16:59.458Z,17.20
2023-05-07T02:19:26.341Z,16.95
2023-05-07T02:21:54.127Z,13.75
2023-05-07T02:24:21.173Z,18.52
2023-05-07T02:26:48.109Z,13.15
2023-05-07T02:29:15.021Z,14.98
2023-05-07T02:31:41.942Z,12.98
2023-05-07T02:34:08.877Z,13.95
2023-05-07T02:36:35.998Z,11.43
2023-05-07T02:39:03.723Z,12.80
2023-05-07T02:41:30.799Z,19.50
2023-05-07T02:43:57.762Z,13.35
2023-05-07T02:46:24.751Z,12.38
2023-05-07T02:48:51.699Z,15.13
2023-05-07T02:51:24.120Z,10.52
2023-05-07T02:53:53.009Z,11.57
2023-05-07T02:56:19.863Z,12.18
2023-05-07T02:58:46.749Z,12.57
2023-05-07T03:01:15.079Z,14.65
2023-05-07T03:03:42.047Z,13.63
2023-05-07T03:06:09.077Z,11.27
2023-05-07T03:08:36.136Z,12.35
2023-05-07T03:11:03.318Z,12.00
2023-05-07T03:13:30.278Z,11.10
2023-05-07T03:15:57.277Z,17.42
2023-05-07T03:18:24.222Z,12.77
2023-05-07T03:20:51.187Z,12.68
2023-05-07T03:23:18.216Z,13.05
2023-05-07T03:25:45.092Z,15.00
2023-05-07T03:28:12.002Z,10.48
2023-05-07T03:30:38.890Z,10.02
2023-05-07T03:33:05.837Z,11.80
2023-05-07T03:35:32.793Z,11.80
2023-05-07T03:37:59.707Z,9.32
2023-05-07T03:40:26.932Z,9.80
2023-05-07T03:42:53.968Z,9.45
2023-05-07T03:45:21.104Z,12.27
2023-05-07T03:47:48.006Z,10.48
2023-05-07T03:50:15.089Z,11.45
2023-05-07T03:52:42.035Z,8.52
2023-05-07T03:55:09.711Z,8.73
2023-05-07T03:57:36.583Z,8.30
2023-05-07T04:00:05.092Z,10.02
2023-05-07T04:02:32.041Z,8.23
2023-05-07T04:04:58.921Z,10.48
2023-05-07T04:07:25.961Z,9.73
2023-05-07T04:09:52.926Z,8.32
2023-05-07T04:12:19.783Z,8.73
2023-05-07T04:14:46.676Z,9.68
2023-05-07T04:17:13.618Z,9.68
2023-05-07T04:19:40.549Z,10.55
2023-05-07T04:22:07.451Z,9.18
2023-05-07T04:24:34.314Z,13.10
2023-05-07T04:27:01.242Z,8.85
2023-05-07T04:29:28.262Z,9.85
2023-05-07T04:31:56.929Z,8.13
2023-05-07T04:34:23.859Z,8.32
2023-05-07T04:36:50.716Z,9.50
2023-05-07T04:39:17.896Z,9.18
2023-05-07T04:41:44.766Z,8.68
2023-05-07T04:44:12.062Z,9.55
2023-05-07T04:46:38.965Z,9.52
2023-05-07T04:49:06.737Z,11.93
2023-05-07T04:51:33.985Z,12.63
2023-05-07T04:54:01.011Z,10.20
2023-05-07T04:56:30.949Z,9.35
2023-05-07T04:58:57.898Z,9.15
2023-05-07T05:01:24.960Z,6.72
2023-05-07T05:03:51.917Z,10.98
2023-05-07T05:06:18.835Z,7.43
2023-05-07T05:08:45.721Z,8.73
2023-05-07T05:11:12.606Z,11.70
2023-05-07T05:13:39.493Z,8.40
2023-05-07T05:16:07.166Z,7.97
2023-05-07T05:18:34.290Z,8.55
2023-05-07T05:21:01.291Z,7.63
2023-05-07T05:23:28.471Z,6.97
2023-05-07T05:25:59.283Z,6.97
2023-05-07T05:28:26.217Z,9.95
2023-05-07T05:30:53.142Z,10.57
2023-05-07T05:33:20.033Z,10.60
2023-05-07T05:35:46.891Z,6.97
2023-05-07T05:38:14.980Z,10.85
2023-05-07T05:40:41.852Z,7.00
2023-05-07T05:43:08.760Z,6.93
2023-05-07T05:45:35.665Z,9.60
2023-05-07T05:48:02.674Z,10.68
2023-05-07T05:50:29.546Z,7.47
2023-05-07T05:52:56.479Z,20.58
2023-05-07T05:55:23.626Z,5.55
2023-05-07T05:57:51.593Z,8.52
2023-05-07T06:00:18.861Z,8.70
2023-05-07T06:02:46.071Z,9.23
2023-05-07T06:05:13.171Z,11.60
2023-05-07T06:07:40.251Z,9.57
2023-05-07T06:10:07.796Z,18.77
2023-05-07T06:12:34.870Z,7.00
2023-05-07T06:15:02.559Z,8.02
2023-05-07T06:17:29.473Z,6.30
2023-05-07T06:19:56.405Z,7.07
2023-05-07T06:22:23.431Z,6.68
2023-05-07T06:24:50.461Z,7.20
2023-05-07T06:27:17.409Z,7.30
2023-05-07T06:29:44.313Z,9.57
2023-05-07T06:32:13.111Z,8.15
2023-05-07T06:34:41.176Z,8.18
2023-05-07T06:37:08.657Z,7.07
2023-05-07T06:39:35.741Z,6.82
2023-05-07T06:42:03.497Z,12.32
2023-05-07T06:44:30.401Z,7.32
2023-05-07T06:46:57.820Z,18.40
2023-05-07T06:49:24.703Z,6.50
2023-05-07T06:51:51.635Z,7.88
2023-05-07T06:54:18.582Z,5.88
2023-05-07T06:56:45.478Z,8.23
2023-05-07T06:59:12.399Z,8.50
2023-05-07T07:01:39.293Z,8.73
2023-05-07T07:04:06.286Z,6.03
2023-05-07T07:06:33.423Z,7.15
2023-05-07T07:09:01.545Z,7.20
2023-05-07T07:11:28.472Z,6.03
2023-05-07T07:13:55.701Z,6.97
2023-05-07T07:16:23.340Z,6.60
2023-05-07T07:18:50.261Z,6.88
2023-05-07T07:21:17.340Z,5.90
2023-05-07T07:23:44.487Z,10.52
2023-05-07T07:26:11.356Z,7.55
2023-05-07T07:28:45.547Z,7.55
2023-05-07T07:33:40.437Z,7.35
2023-05-07T07:36:08.291Z,11.82
2023-05-07T07:38:36.023Z,6.68
2023-05-07T07:41:03.047Z,7.15
2023-05-07T07:47:11.556Z,7.43
2023-05-07T07:49:38.442Z,10.35
2023-05-07T07:52:05.343Z,9.50
2023-05-07T07:54:32.335Z,6.63
2023-05-07T07:56:59.652Z,9.80
2023-05-07T07:59:26.621Z,8.43
2023-05-07T08:01:56.743Z,7.68
2023-05-07T08:04:24.105Z,8.45
2023-05-07T08:06:51.195Z,6.70
2023-05-07T08:09:18.159Z,6.78
2023-05-07T08:11:45.109Z,7.10
2023-05-07T08:14:12.741Z,8.05
2023-05-07T08:16:39.628Z,11.65
2023-05-07T08:19:06.775Z,5.88
2023-05-07T08:21:34.619Z,6.85
2023-05-07T08:24:01.760Z,5.13
2023-05-07T08:26:28.658Z,7.53
2023-05-07T08:32:43.120Z,6.65
2023-05-07T08:35:10.676Z,9.43
2023-05-07T08:37:37.601Z,6.30
2023-05-07T08:40:06.582Z,5.28
2023-05-07T08:42:38.790Z,5.45
2023-05-07T08:45:09.716Z,6.97
2023-05-07T08:47:44.752Z,5.95
2023-05-07T08:50:12.965Z,5.70
2023-05-07T08:52:43.990Z,5.95
2023-05-07T08:55:11.343Z,8.60
2023-05-07T09:01:26.545Z,5.80
2023-05-07T09:03:54.612Z,7.32
2023-05-07T09:06:21.520Z,5.35
2023-05-07T09:08:55.633Z,7.10
2023-05-07T09:11:25.984Z,7.75
2023-05-07T09:13:57.238Z,4.13
2023-05-07T09:16:25.187Z,5.25
2023-05-07T09:18:56.139Z,6.80
2023-05-07T09:21:24.163Z,6.75
2023-05-07T09:23:56.109Z,4.07
2023-05-07T09:26:24.045Z,10.25
2023-05-07T09:28:51.395Z,7.18
2023-05-07T09:31:21.129Z,4.65
2023-05-07T09:33:48.691Z,5.55
2023-05-07T09:36:15.993Z,8.55
2023-05-07T09:38:43.639Z,6.00
2023-05-07T09:41:12.698Z,5.35
2023-05-07T09:43:41.380Z,6.15
2023-05-07T09:46:12.545Z,4.97
2023-05-07T09:48:41.393Z,5.90
2023-05-07T09:51:33.410Z,3.97
2023-05-07T09:54:02.369Z,6.25
2023-05-07T09:56:31.335Z,8.35
2023-05-07T09:59:01.683Z,5.55
2023-05-07T10:01:29.447Z,4.95
2023-05-07T10:03:57.202Z,5.60
2023-05-07T10:06:26.587Z,3.88
2023-05-07T10:08:54.964Z,5.82
2023-05-07T10:11:23.552Z,7.93
2023-05-07T10:13:51.119Z,4.05
2023-05-07T10:16:19.232Z,5.20
2023-05-07T10:18:47.838Z,6.10
2023-05-07T10:21:19.824Z,4.30
2023-05-07T10:24:03.125Z,7.07
2023-05-07T10:26:31.864Z,5.03
2023-05-07T10:29:08.703Z,5.30
2023-05-07T10:31:56.983Z,6.68
2023-05-07T10:34:30.432Z,4.15
2023-05-07T10:36:58.065Z,5.25
2023-05-07T10:39:25.149Z,8.38
2023-05-07T10:41:52.152Z,4.68
2023-05-07T10:44:31.193Z,6.25
2023-05-07T10:47:13.929Z,6.30
2023-05-07T10:49:47.038Z,7.75
2023-05-07T10:52:25.658Z,7.93
2023-05-07T10:55:19.412Z,10.15
2023-05-07T10:57:46.547Z,4.95
2023-05-07T11:00:37.931Z,7.72
2023-05-07T11:03:09.263Z,8.52
2023-05-07T11:05:38.455Z,7.28
2023-05-07T11:08:06.534Z,7.10
2023-05-07T11:10:53.638Z,8.55
2023-05-07T11:13:43.436Z,7.53
2023-05-07T11:16:24.267Z,8.07
2023-05-07T11:18:52.868Z,9.57
2023-05-07T11:21:42.684Z,8.13
2023-05-07T11:24:13.979Z,9.55
2023-05-07T11:26:50.986Z,6.72
2023-05-07T11:29:22.287Z,9.00
2023-05-07T11:31:54.367Z,9.32
2023-05-07T11:34:26.113Z,11.48
2023-05-07T11:36:53.943Z,7.95
2023-05-07T11:39:34.350Z,6.05
2023-05-07T11:42:01.538Z,7.95
2023-05-07T11:44:42.942Z,5.93
2023-05-07T11:47:10.764Z,9.82
2023-05-07T11:49:37.789Z,8.48
2023-05-07T11:52:06.705Z,8.25
2023-05-07T11:54:38.128Z,6.28
2023-05-07T11:57:05.353Z,6.88
2023-05-07T11:59:39.302Z,6.45
2023-05-07T12:02:06.928Z,5.38
2023-05-07T12:04:33.887Z,7.25
2023-05-07T12:07:00.743Z,5.75
2023-05-07T12:09:28.102Z,6.88
2023-05-07T12:11:57.193Z,6.45
2023-05-07T12:14:30.150Z,6.00
2023-05-07T12:16:57.403Z,6.50
2023-05-07T12:19:24.802Z,7.82
2023-05-07T12:21:52.092Z,5.60
2023-05-07T12:24:22.054Z,6.22
2023-05-07T12:26:50.680Z,5.40
2023-05-07T12:29:17.578Z,5.05
2023-05-07T12:31:44.838Z,5.78
2023-05-07T12:34:14.958Z,6.10
2023-05-07T12:36:42.132Z,8.88
2023-05-07T12:39:10.075Z,6.03
2023-05-07T12:42:01.735Z,5.70
2023-05-07T12:44:33.938Z,7.90
2023-05-07T12:47:04.470Z,5.93
2023-05-07T12:49:31.485Z,8.75
2023-05-07T12:51:59.574Z,7.05
2023-05-07T12:54:34.631Z,6.72
2023-05-07T12:57:06.705Z,5.70
2023-05-07T12:59:43.174Z,6.88
2023-05-07T13:02:10.956Z,6.03
2023-05-07T13:04:38.212Z,6.65
2023-05-07T13:07:05.123Z,5.25
2023-05-07T13:09:32.620Z,5.55
2023-05-07T13:12:02.836Z,8.75
2023-05-07T13:14:29.752Z,5.53
2023-05-07T13:16:56.638Z,6.65
2023-05-07T13:19:23.803Z,6.57
2023-05-07T13:21:51.049Z,4.95
2023-05-07T13:24:18.129Z,5.88
2023-05-07T13:26:46.144Z,8.50
2023-05-07T13:29:13.245Z,6.50
2023-05-07T13:31:43.969Z,8.05
2023-05-07T13:34:11.515Z,5.75
2023-05-07T13:36:41.070Z,7.10
2023-05-07T13:39:08.186Z,6.75
2023-05-07T13:41:35.126Z,5.95
2023-05-07T13:44:02.101Z,5.15
2023-05-07T13:46:31.042Z,6.53
2023-05-07T13:48:58.148Z,5.20
2023-05-07T13:51:25.121Z,5.20
2023-05-07T13:53:51.968Z,7.10
2023-05-07T13:56:19.050Z,8.75
2023-05-07T13:58:58.903Z,7.38
2023-05-07T14:01:26.914Z,6.93
2023-05-07T14:03:53.978Z,8.98
2023-05-07T14:06:21.068Z,6.78
2023-05-07T14:08:48.018Z,5.68
2023-05-07T14:11:14.978Z,6.32
2023-05-07T14:13:41.949Z,7.85
2023-05-07T14:16:09.095Z,6.13
2023-05-07T14:18:38.106Z,5.15
2023-05-07T14:21:07.416Z,4.75
2023-05-07T14:23:34.396Z,4.90
2023-05-07T14:26:01.280Z,5.25
2023-05-07T14:28:28.447Z,3.75
2023-05-07T14:30:55.777Z,5.40
2023-05-07T14:33:22.727Z,4.22
2023-05-07T14:35:51.323Z,5.35
2023-05-07T14:38:18.246Z,5.85
2023-05-07T14:40:46.318Z,7.97
2023-05-07T14:43:13.252Z,6.53
2023-05-07T14:45:40.614Z,5.68
2023-05-07T14:48:07.595Z,7.43
2023-05-07T14:50:34.595Z,5.72
2023-05-07T14:53:01.504Z,6.32
2023-05-07T14:55:28.447Z,8.07
2023-05-07T14:57:56.756Z,7.80
2023-05-07T15:00:23.714Z,7.65
2023-05-07T15:02:50.730Z,5.93
2023-05-07T15:05:19.643Z,5.65
2023-05-07T15:07:47.401Z,5.55
2023-05-07T15:10:14.451Z,6.55
2023-05-07T15:12:41.561Z,6.85
2023-05-07T15:15:09.355Z,7.45
2023-05-07T15:17:36.581Z,6.60
2023-05-07T15:20:05.846Z,7.10
2023-05-07T15:22:33.870Z,5.72
2023-05-07T15:25:01.070Z,10.77
2023-05-07T15:27:27.949Z,6.10
2023-05-07T15:29:54.848Z,6.18
2023-05-07T15:32:21.739Z,5.88
2023-05-07T15:34:48.756Z,5.72
2023-05-07T15:37:15.776Z,4.53
2023-05-07T15:39:42.721Z,7.68
2023-05-07T15:42:09.618Z,5.13
2023-05-07T15:44:36.725Z,9.50
2023-05-07T15:47:03.662Z,4.03
2023-05-07T15:49:30.662Z,8.27
2023-05-07T15:51:58.162Z,5.65
2023-05-07T15:54:25.446Z,5.32
2023-05-07T15:56:52.491Z,4.90
2023-05-07T15:59:19.418Z,4.90
2023-05-07T16:01:46.488Z,6.15
2023-05-07T16:04:13.539Z,6.13
2023-05-07T16:06:41.128Z,4.28
2023-05-07T16:09:10.293Z,4.70
2023-05-07T16:11:37.246Z,6.32
2023-05-07T16:14:04.176Z,4.82
2023-05-07T16:16:34.143Z,7.35
2023-05-07T16:19:01.528Z,5.75
2023-05-07T16:21:28.463Z,5.13
2023-05-07T16:23:55.406Z,5.13
2023-05-07T16:26:22.386Z,5.93
2023-05-07T16:28:49.631Z,5.25
2023-05-07T16:31:16.765Z,4.65
2023-05-07T16:33:43.788Z,6.43
2023-05-07T16:36:10.986Z,3.67
2023-05-07T16:38:38.725Z,6.35
2023-05-07T16:41:08.659Z,7.50
2023-05-07T16:43:35.612Z,6.88
2023-05-07T16:46:02.795Z,5.75
2023-05-07T16:48:29.780Z,5.97
2023-05-07T16:50:58.720Z,5.68
2023-05-07T16:53:25.613Z,7.25
2023-05-07T16:55:56.508Z,5.93
2023-05-07T16:58:23.636Z,5.10
2023-05-07T17:00:51.378Z,5.90
2023-05-07T17:03:19.328Z,4.90
2023-05-07T17:05:46.961Z,5.93
2023-05-07T17:08:14.422Z,5.90
2023-05-07T17:10:42.190Z,7.80
2023-05-07T17:13:09.246Z,4.78
2023-05-07T17:15:36.274Z,4.68
2023-05-07T17:18:03.399Z,5.72
2023-05-07T17:20:30.349Z,6.18
2023-05-07T17:22:57.325Z,4.43
2023-05-07T17:25:24.321Z,8.45
2023-05-07T17:27:51.443Z,5.78
2023-05-07T17:30:18.795Z,5.43
2023-05-07T17:32:45.960Z,5.20
2023-05-07T17:35:12.919Z,8.18
2023-05-07T17:37:40.224Z,8.50
2023-05-07T17:40:07.950Z,6.55
2023-05-07T17:42:34.854Z,5.28
2023-05-07T17:45:01.775Z,6.43
2023-05-07T17:47:28.761Z,7.65
2023-05-07T17:49:55.780Z,5.15
2023-05-07T17:52:22.692Z,6.28
2023-05-07T17:54:49.991Z,8.07
2023-05-07T17:57:16.868Z,6.68
2023-05-07T17:59:43.870Z,5.63
2023-05-07T18:02:10.863Z,6.65
2023-05-07T18:04:37.807Z,7.68
2023-05-07T18:07:04.807Z,5.70
2023-05-07T18:09:31.689Z,6.18
2023-05-07T18:11:58.709Z,5.57
2023-05-07T18:14:26.234Z,6.47
2023-05-07T18:16:54.389Z,5.38
2023-05-07T18:19:21.501Z,5.75
2023-05-07T18:21:49.104Z,8.25
2023-05-07T18:24:16.079Z,7.57
2023-05-07T18:26:43.020Z,5.20
2023-05-07T18:29:09.985Z,6.47
2023-05-07T18:31:37.979Z,5.55
2023-05-07T18:34:06.567Z,4.82
2023-05-07T18:36:33.565Z,4.53
2023-05-07T18:39:01.423Z,4.82
2023-05-07T18:41:28.695Z,5.05
2023-05-07T18:43:55.906Z,7.20
2023-05-07T18:46:23.089Z,5.03
2023-05-07T18:48:50.229Z,5.68
2023-05-07T18:51:17.135Z,7.07
2023-05-07T18:53:44.190Z,7.88
2023-05-07T18:56:11.186Z,7.00
2023-05-07T18:58:38.408Z,6.03
2023-05-07T19:01:08.730Z,5.95
2023-05-07T19:03:36.024Z,7.90
2023-05-07T19:06:03.376Z,5.38
2023-05-07T19:08:30.671Z,7.03
2023-05-07T19:10:58.122Z,5.40
2023-05-07T19:13:27.538Z,7.75
2023-05-07T19:15:55.125Z,7.97
2023-05-07T19:18:22.186Z,4.72
2023-05-07T19:20:52.145Z,7.63
2023-05-07T19:23:21.544Z,6.20
2023-05-07T19:25:48.972Z,6.70
2023-05-07T19:28:16.558Z,3.85
2023-05-07T19:30:43.519Z,6.82
2023-05-07T19:33:10.625Z,7.18
2023-05-07T19:35:37.704Z,5.65
2023-05-07T19:38:05.777Z,4.20
2023-05-07T19:40:33.019Z,5.45
2023-05-07T19:43:00.193Z,4.50
2023-05-07T19:45:27.149Z,4.50
2023-05-07T19:47:54.358Z,6.68
2023-05-07T19:50:22.258Z,6.97
2023-05-07T19:52:49.449Z,5.65
2023-05-07T19:55:16.429Z,7.50
2023-05-07T19:57:43.825Z,7.43
2023-05-07T20:00:11.631Z,5.95
2023-05-07T20:02:38.703Z,5.57
2023-05-07T20:05:06.013Z,5.88
2023-05-07T20:07:32.906Z,9.52
2023-05-07T20:10:00.032Z,4.78
2023-05-07T20:12:26.925Z,5.55
2023-05-07T20:14:53.840Z,5.93
2023-05-07T20:17:20.721Z,6.90
2023-05-07T20:19:47.668Z,6.13
2023-05-07T20:22:14.602Z,6.38
2023-05-07T20:24:41.616Z,6.72
2023-05-07T20:27:09.216Z,5.75
2023-05-07T20:29:36.230Z,6.18
2023-05-07T20:32:03.620Z,6.57
2023-05-07T20:34:30.644Z,5.35
2023-05-07T20:36:57.679Z,6.13
2023-05-07T20:39:24.603Z,7.43
2023-05-07T20:41:52.599Z,5.13
2023-05-07T20:44:20.118Z,6.88
2023-05-07T20:46:47.750Z,6.50
2023-05-07T20:49:14.982Z,5.63
2023-05-07T20:51:41.921Z,5.57
2023-05-07T20:54:08.853Z,6.72
2023-05-07T20:56:35.826Z,5.57
2023-05-07T20:59:02.818Z,5.70
2023-05-07T21:01:29.780Z,7.03
2023-05-07T21:03:57.003Z,6.68
2023-05-07T21:06:24.051Z,7.68
2023-05-07T21:08:51.026Z,7.38
2023-05-07T21:11:18.186Z,6.88
2023-05-07T21:13:45.455Z,4.75
2023-05-07T21:16:12.482Z,7.47
2023-05-07T21:18:39.482Z,4.72
2023-05-07T21:21:10.278Z,9.65
2023-05-07T21:23:39.017Z,4.85
2023-05-07T21:26:06.121Z,5.65
2023-05-07T21:28:33.118Z,7.57
2023-05-07T21:31:00.020Z,8.07
2023-05-07T21:33:26.871Z,7.03
2023-05-07T21:35:54.255Z,10.48
2023-05-07T21:38:21.169Z,5.13
2023-05-07T21:40:48.084Z,7.25
2023-05-07T21:43:14.980Z,7.70
2023-05-07T21:45:41.979Z,6.25
2023-05-07T21:48:09.092Z,5.20
2023-05-07T21:50:36.032Z,6.68
2023-05-07T21:53:02.918Z,6.80
2023-05-07T21:55:29.890Z,9.30
2023-05-07T21:58:04.925Z,9.98
2023-05-07T22:00:32.992Z,6.50
2023-05-07T22:03:00.420Z,5.50
2023-05-07T22:05:27.670Z,7.93
2023-05-07T22:07:57.271Z,4.90
2023-05-07T22:10:24.319Z,5.68
2023-05-07T22:12:51.271Z,8.57
2023-05-07T22:15:18.479Z,5.55
2023-05-07T22:17:45.507Z,7.20
2023-05-07T22:20:13.313Z,7.82
2023-05-07T22:22:52.670Z,8.23
2023-05-07T22:25:23.832Z,8.65
2023-05-07T22:27:51.180Z,7.93
2023-05-07T22:30:18.483Z,7.97
2023-05-07T22:32:45.763Z,6.40
2023-05-07T22:35:12.702Z,6.35
2023-05-07T22:37:39.697Z,7.18
2023-05-07T22:40:07.281Z,4.97
2023-05-07T22:42:34.192Z,5.85
2023-05-07T22:45:01.053Z,9.25
2023-05-07T22:47:31.397Z,6.43
2023-05-07T22:49:58.460Z,7.75
2023-05-07T22:52:25.614Z,8.38
2023-05-07T22:54:52.808Z,11.40
2023-05-07T22:57:19.693Z,8.82
2023-05-07T22:59:46.618Z,5.35
2023-05-07T23:02:13.731Z,6.88
2023-05-07T23:04:40.669Z,7.45
2023-05-07T23:07:07.539Z,5.80
2023-05-07T23:09:34.503Z,7.00
2023-05-07T23:12:01.383Z,6.05
2023-05-07T23:14:28.254Z,7.68
2023-05-07T23:16:55.399Z,7.53
2023-05-07T23:19:22.425Z,5.78
2023-05-07T23:21:49.335Z,8.60
2023-05-07T23:24:16.453Z,6.57
2023-05-07T23:26:43.536Z,6.97
2023-05-07T23:29:10.441Z,8.13
2023-05-07T23:31:37.468Z,8.98
2023-05-07T23:34:04.613Z,8.43
2023-05-07T23:36:32.993Z,8.73
2023-05-07T23:38:59.884Z,6.82
2023-05-07T23:41:27.186Z,7.10
2023-05-07T23:43:54.056Z,7.85
2023-05-07T23:46:21.048Z,6.30
2023-05-07T23:48:47.967Z,7.90
2023-05-07T23:51:14.891Z,7.00
2023-05-07T23:53:41.972Z,5.70
2023-05-07T23:56:09.163Z,7.32
2023-05-07T23:58:36.134Z,8.35
